Adrian, North Dakota
Current Conditions -  °F | °C
As of 5:56 AM on Friday 28 Nov 2014 (Local Time) from KJMS Reporting Station
Overcast Overcast  
Wind Chill: -8°   Ceiling: 700
Heat Index:   Visibility: 10mi
Dew Point:   Wind: 12mph
Humidity: 84%   Direction: 110°ESE
Pressure: 29.87"   Gusts: NA
Location:  46.6526°N, 98.6214°W
Report Text: KJMS 281156Z AUTO 11010KT 10SM BKN007 BKN070 OVC100 M14/M16 A2987 RMK AO2 SLP151 70004 T11391161 11139 21144 56020
Loading
Personal Weather Stations






























Interactive Weather Map New forecast layout! Learn more

10-Day Weather Forecast

Advertisements
Track Severe Weather on mobile